sensor_id;sensor_type;location;lat;lon;timestamp;temperature;humidity
22290;DHT22;11313;50.116;8.424;2023-01-20T00:01:46;24.90;48.00
22290;DHT22;11313;50.116;8.424;2023-01-20T00:04:12;24.90;48.00
22290;DHT22;11313;50.116;8.424;2023-01-20T00:06:39;24.80;47.90
22290;DHT22;11313;50.116;8.424;2023-01-20T00:09:05;24.90;48.00
22290;DHT22;11313;50.116;8.424;2023-01-20T00:11:31;24.80;47.90
22290;DHT22;11313;50.116;8.424;2023-01-20T00:13:58;24.90;48.10
22290;DHT22;11313;50.116;8.424;2023-01-20T00:16:25;24.80;47.90
22290;DHT22;11313;50.116;8.424;2023-01-20T00:18:51;24.80;47.90
22290;DHT22;11313;50.116;8.424;2023-01-20T00:21:16;24.80;47.90
22290;DHT22;11313;50.116;8.424;2023-01-20T00:23:43;24.90;48.00
22290;DHT22;11313;50.116;8.424;2023-01-20T00:26:11;24.80;47.90
22290;DHT22;11313;50.116;8.424;2023-01-20T00:28:37;24.80;47.90
22290;DHT22;11313;50.116;8.424;2023-01-20T00:31:30;24.80;47.90
22290;DHT22;11313;50.116;8.424;2023-01-20T00:33:57;24.80;47.90
22290;DHT22;11313;50.116;8.424;2023-01-20T00:36:25;24.80;47.90
22290;DHT22;11313;50.116;8.424;2023-01-20T00:38:51;24.80;47.90
22290;DHT22;11313;50.116;8.424;2023-01-20T00:41:16;24.80;47.90
22290;DHT22;11313;50.116;8.424;2023-01-20T00:43:42;24.80;47.90
22290;DHT22;11313;50.116;8.424;2023-01-20T00:46:08;24.80;47.90
22290;DHT22;11313;50.116;8.424;2023-01-20T00:48:34;24.80;47.90
22290;DHT22;11313;50.116;8.424;2023-01-20T00:51:00;24.90;48.00
22290;DHT22;11313;50.116;8.424;2023-01-20T00:53:26;24.90;47.90
22290;DHT22;11313;50.116;8.424;2023-01-20T00:55:51;24.90;47.90
22290;DHT22;11313;50.116;8.424;2023-01-20T00:58:17;24.90;47.90
22290;DHT22;11313;50.116;8.424;2023-01-20T01:00:45;24.90;47.90
22290;DHT22;11313;50.116;8.424;2023-01-20T01:03:11;24.90;47.90
22290;DHT22;11313;50.116;8.424;2023-01-20T01:05:37;24.90;47.90
22290;DHT22;11313;50.116;8.424;2023-01-20T01:08:03;24.90;47.90
22290;DHT22;11313;50.116;8.424;2023-01-20T01:10:28;24.90;47.80
22290;DHT22;11313;50.116;8.424;2023-01-20T01:12:54;24.90;47.80
22290;DHT22;11313;50.116;8.424;2023-01-20T01:15:19;24.90;47.80
22290;DHT22;11313;50.116;8.424;2023-01-20T01:17:45;24.90;47.80
22290;DHT22;11313;50.116;8.424;2023-01-20T01:20:12;24.90;47.80
22290;DHT22;11313;50.116;8.424;2023-01-20T01:22:38;24.90;47.80
22290;DHT22;11313;50.116;8.424;2023-01-20T01:25:04;24.90;47.70
22290;DHT22;11313;50.116;8.424;2023-01-20T01:27:29;25.00;47.80
22290;DHT22;11313;50.116;8.424;2023-01-20T01:29:55;24.90;47.70
22290;DHT22;11313;50.116;8.424;2023-01-20T01:32:21;24.90;47.70
22290;DHT22;11313;50.116;8.424;2023-01-20T01:34:47;24.90;47.70
22290;DHT22;11313;50.116;8.424;2023-01-20T01:37:12;24.90;45.90
22290;DHT22;11313;50.116;8.424;2023-01-20T01:39:38;24.90;45.10
22290;DHT22;11313;50.116;8.424;2023-01-20T01:42:13;24.90;45.10
22290;DHT22;11313;50.116;8.424;2023-01-20T01:45:13;24.80;45.10
22290;DHT22;11313;50.116;8.424;2023-01-20T01:47:56;24.80;45.10
22290;DHT22;11313;50.116;8.424;2023-01-20T01:50:29;24.80;45.20
22290;DHT22;11313;50.116;8.424;2023-01-20T01:52:57;24.70;45.10
22290;DHT22;11313;50.116;8.424;2023-01-20T01:55:26;24.70;45.20
22290;DHT22;11313;50.116;8.424;2023-01-20T01:57:55;24.70;45.20
22290;DHT22;11313;50.116;8.424;2023-01-20T02:00:21;24.70;45.10
22290;DHT22;11313;50.116;8.424;2023-01-20T02:02:47;24.70;45.10
22290;DHT22;11313;50.116;8.424;2023-01-20T02:05:14;24.70;45.10
22290;DHT22;11313;50.116;8.424;2023-01-20T02:07:44;24.70;45.10
22290;DHT22;11313;50.116;8.424;2023-01-20T02:10:11;24.70;45.00
22290;DHT22;11313;50.116;8.424;2023-01-20T02:12:37;24.70;45.80
22290;DHT22;11313;50.116;8.424;2023-01-20T02:15:03;24.60;45.00
22290;DHT22;11313;50.116;8.424;2023-01-20T02:18:11;24.70;45.10
22290;DHT22;11313;50.116;8.424;2023-01-20T02:25:40;24.60;45.00
22290;DHT22;11313;50.116;8.424;2023-01-20T02:33:29;24.60;45.00
22290;DHT22;11313;50.116;8.424;2023-01-20T02:36:48;24.60;45.00
22290;DHT22;11313;50.116;8.424;2023-01-20T02:38:59;24.50;45.00
22290;DHT22;11313;50.116;8.424;2023-01-20T02:41:59;24.60;45.00
22290;DHT22;11313;50.116;8.424;2023-01-20T02:44:45;24.50;45.00
22290;DHT22;11313;50.116;8.424;2023-01-20T02:47:21;24.50;45.00
22290;DHT22;11313;50.116;8.424;2023-01-20T02:50:08;24.50;45.00
22290;DHT22;11313;50.116;8.424;2023-01-20T02:52:38;24.50;45.00
22290;DHT22;11313;50.116;8.424;2023-01-20T02:55:07;24.50;45.00
22290;DHT22;11313;50.116;8.424;2023-01-20T02:57:45;24.50;44.90
22290;DHT22;11313;50.116;8.424;2023-01-20T03:00:23;24.50;45.00
22290;DHT22;11313;50.116;8.424;2023-01-20T03:02:51;24.50;44.90
22290;DHT22;11313;50.116;8.424;2023-01-20T03:05:25;24.50;44.90
22290;DHT22;11313;50.116;8.424;2023-01-20T03:07:52;24.50;44.90
22290;DHT22;11313;50.116;8.424;2023-01-20T03:10:21;24.50;44.90
22290;DHT22;11313;50.116;8.424;2023-01-20T03:12:53;24.50;44.90
22290;DHT22;11313;50.116;8.424;2023-01-20T03:15:23;24.50;45.00
22290;DHT22;11313;50.116;8.424;2023-01-20T03:17:50;24.50;44.90
22290;DHT22;11313;50.116;8.424;2023-01-20T03:20:16;24.50;44.90
22290;DHT22;11313;50.116;8.424;2023-01-20T03:22:42;24.50;44.90
22290;DHT22;11313;50.116;8.424;2023-01-20T03:25:09;24.50;44.90
22290;DHT22;11313;50.116;8.424;2023-01-20T03:27:35;24.50;44.90
22290;DHT22;11313;50.116;8.424;2023-01-20T03:30:01;24.50;44.90
22290;DHT22;11313;50.116;8.424;2023-01-20T03:32:27;24.50;44.90
22290;DHT22;11313;50.116;8.424;2023-01-20T03:34:54;24.50;44.90
22290;DHT22;11313;50.116;8.424;2023-01-20T03:37:21;24.50;44.80
22290;DHT22;11313;50.116;8.424;2023-01-20T03:39:47;24.50;44.80
22290;DHT22;11313;50.116;8.424;2023-01-20T03:42:57;24.50;44.80
22290;DHT22;11313;50.116;8.424;2023-01-20T03:45:25;24.50;44.80
22290;DHT22;11313;50.116;8.424;2023-01-20T03:48:06;24.50;44.80
22290;DHT22;11313;50.116;8.424;2023-01-20T03:50:45;24.50;44.80
22290;DHT22;11313;50.116;8.424;2023-01-20T03:53:37;24.50;44.80
22290;DHT22;11313;50.116;8.424;2023-01-20T03:56:13;24.50;44.80
22290;DHT22;11313;50.116;8.424;2023-01-20T03:58:43;24.50;44.80
22290;DHT22;11313;50.116;8.424;2023-01-20T04:01:11;24.50;44.70
22290;DHT22;11313;50.116;8.424;2023-01-20T04:03:39;24.50;44.70
22290;DHT22;11313;50.116;8.424;2023-01-20T04:06:08;24.50;44.70
22290;DHT22;11313;50.116;8.424;2023-01-20T04:08:40;24.50;44.70
22290;DHT22;11313;50.116;8.424;2023-01-20T04:11:07;24.50;44.70
22290;DHT22;11313;50.116;8.424;2023-01-20T04:13:32;24.50;44.70
22290;DHT22;11313;50.116;8.424;2023-01-20T04:16:00;24.50;44.70
22290;DHT22;11313;50.116;8.424;2023-01-20T04:18:26;24.50;44.60
22290;DHT22;11313;50.116;8.424;2023-01-20T04:20:57;24.50;44.70
22290;DHT22;11313;50.116;8.424;2023-01-20T04:23:34;24.50;44.60
22290;DHT22;11313;50.116;8.424;2023-01-20T04:26:01;24.50;44.70
22290;DHT22;11313;50.116;8.424;2023-01-20T04:28:26;24.50;44.60
22290;DHT22;11313;50.116;8.424;2023-01-20T04:30:52;24.50;44.60
22290;DHT22;11313;50.116;8.424;2023-01-20T04:33:17;24.40;44.60
22290;DHT22;11313;50.116;8.424;2023-01-20T04:35:43;24.50;44.70
22290;DHT22;11313;50.116;8.424;2023-01-20T04:38:08;24.40;44.60
22290;DHT22;11313;50.116;8.424;2023-01-20T04:40:34;24.40;44.70
22290;DHT22;11313;50.116;8.424;2023-01-20T04:42:59;24.40;44.60
22290;DHT22;11313;50.116;8.424;2023-01-20T04:45:25;24.40;44.60
22290;DHT22;11313;50.116;8.424;2023-01-20T04:47:50;24.40;44.60
22290;DHT22;11313;50.116;8.424;2023-01-20T04:50:16;24.40;44.70
22290;DHT22;11313;50.116;8.424;2023-01-20T04:52:42;24.40;44.60
22290;DHT22;11313;50.116;8.424;2023-01-20T04:55:09;24.40;44.60
22290;DHT22;11313;50.116;8.424;2023-01-20T04:57:34;24.40;44.60
22290;DHT22;11313;50.116;8.424;2023-01-20T05:00:00;24.40;44.60
22290;DHT22;11313;50.116;8.424;2023-01-20T05:02:26;24.40;44.60
22290;DHT22;11313;50.116;8.424;2023-01-20T05:04:51;24.40;44.60
22290;DHT22;11313;50.116;8.424;2023-01-20T05:07:16;24.40;44.60
22290;DHT22;11313;50.116;8.424;2023-01-20T05:09:42;24.40;44.60
22290;DHT22;11313;50.116;8.424;2023-01-20T05:12:08;24.40;44.70
22290;DHT22;11313;50.116;8.424;2023-01-20T05:14:33;24.40;44.60
22290;DHT22;11313;50.116;8.424;2023-01-20T05:16:58;24.40;44.70
22290;DHT22;11313;50.116;8.424;2023-01-20T05:19:24;24.40;44.70
22290;DHT22;11313;50.116;8.424;2023-01-20T05:21:49;24.40;44.70
22290;DHT22;11313;50.116;8.424;2023-01-20T05:24:15;24.40;44.70
22290;DHT22;11313;50.116;8.424;2023-01-20T05:26:41;24.40;44.70
22290;DHT22;11313;50.116;8.424;2023-01-20T05:29:06;24.40;44.70
22290;DHT22;11313;50.116;8.424;2023-01-20T05:31:32;24.40;44.70
22290;DHT22;11313;50.116;8.424;2023-01-20T05:33:57;24.40;44.70
22290;DHT22;11313;50.116;8.424;2023-01-20T05:36:23;24.40;44.70
22290;DHT22;11313;50.116;8.424;2023-01-20T05:38:49;24.40;44.70
22290;DHT22;11313;50.116;8.424;2023-01-20T05:41:14;24.40;44.70
22290;DHT22;11313;50.116;8.424;2023-01-20T05:43:40;24.40;44.60
22290;DHT22;11313;50.116;8.424;2023-01-20T05:46:05;24.40;44.70
22290;DHT22;11313;50.116;8.424;2023-01-20T05:48:31;24.40;44.70
22290;DHT22;11313;50.116;8.424;2023-01-20T05:50:57;24.40;44.70
22290;DHT22;11313;50.116;8.424;2023-01-20T05:53:22;24.40;44.70
22290;DHT22;11313;50.116;8.424;2023-01-20T05:55:48;24.40;44.70
22290;DHT22;11313;50.116;8.424;2023-01-20T05:58:14;24.40;44.70
22290;DHT22;11313;50.116;8.424;2023-01-20T06:00:39;24.40;44.70
22290;DHT22;11313;50.116;8.424;2023-01-20T06:03:05;24.40;44.70
22290;DHT22;11313;50.116;8.424;2023-01-20T06:05:31;24.40;44.70
22290;DHT22;11313;50.116;8.424;2023-01-20T06:07:57;24.40;44.70
22290;DHT22;11313;50.116;8.424;2023-01-20T06:10:23;24.40;44.70
22290;DHT22;11313;50.116;8.424;2023-01-20T06:12:53;24.40;44.70
22290;DHT22;11313;50.116;8.424;2023-01-20T06:15:19;24.40;44.70
22290;DHT22;11313;50.116;8.424;2023-01-20T06:17:45;24.40;44.70
22290;DHT22;11313;50.116;8.424;2023-01-20T06:20:11;24.40;44.60
22290;DHT22;11313;50.116;8.424;2023-01-20T06:22:36;24.40;44.60
22290;DHT22;11313;50.116;8.424;2023-01-20T06:25:02;24.50;44.70
22290;DHT22;11313;50.116;8.424;2023-01-20T06:27:28;24.40;44.60
22290;DHT22;11313;50.116;8.424;2023-01-20T06:29:53;24.40;44.60
22290;DHT22;11313;50.116;8.424;2023-01-20T06:32:19;24.40;44.60
22290;DHT22;11313;50.116;8.424;2023-01-20T06:34:44;24.40;44.60
22290;DHT22;11313;50.116;8.424;2023-01-20T06:37:10;24.40;44.60
22290;DHT22;11313;50.116;8.424;2023-01-20T06:39:35;24.40;44.50
22290;DHT22;11313;50.116;8.424;2023-01-20T06:42:02;24.40;44.50
22290;DHT22;11313;50.116;8.424;2023-01-20T06:44:27;24.40;44.50
22290;DHT22;11313;50.116;8.424;2023-01-20T06:46:53;24.40;44.50
22290;DHT22;11313;50.116;8.424;2023-01-20T06:49:18;24.40;44.50
22290;DHT22;11313;50.116;8.424;2023-01-20T06:51:44;24.40;44.40
22290;DHT22;11313;50.116;8.424;2023-01-20T06:54:12;24.40;44.50
22290;DHT22;11313;50.116;8.424;2023-01-20T06:56:37;24.40;44.50
22290;DHT22;11313;50.116;8.424;2023-01-20T06:59:02;24.40;44.50
22290;DHT22;11313;50.116;8.424;2023-01-20T07:01:29;24.40;44.40
22290;DHT22;11313;50.116;8.424;2023-01-20T07:03:55;24.40;44.50
22290;DHT22;11313;50.116;8.424;2023-01-20T07:06:31;24.40;44.40
22290;DHT22;11313;50.116;8.424;2023-01-20T07:08:58;24.40;44.40
22290;DHT22;11313;50.116;8.424;2023-01-20T07:11:24;24.40;44.50
22290;DHT22;11313;50.116;8.424;2023-01-20T07:13:50;24.40;44.40
22290;DHT22;11313;50.116;8.424;2023-01-20T07:16:15;24.40;44.40
22290;DHT22;11313;50.116;8.424;2023-01-20T07:18:41;24.40;44.40
22290;DHT22;11313;50.116;8.424;2023-01-20T07:21:09;24.40;44.40
22290;DHT22;11313;50.116;8.424;2023-01-20T07:23:35;24.40;44.40
22290;DHT22;11313;50.116;8.424;2023-01-20T07:26:09;24.40;44.40
22290;DHT22;11313;50.116;8.424;2023-01-20T07:28:35;24.40;44.40
22290;DHT22;11313;50.116;8.424;2023-01-20T07:31:15;24.30;44.30
22290;DHT22;11313;50.116;8.424;2023-01-20T07:33:40;24.30;44.40
22290;DHT22;11313;50.116;8.424;2023-01-20T07:36:07;24.30;44.40
22290;DHT22;11313;50.116;8.424;2023-01-20T07:38:34;24.30;44.30
22290;DHT22;11313;50.116;8.424;2023-01-20T07:41:01;24.30;44.30
22290;DHT22;11313;50.116;8.424;2023-01-20T07:43:27;24.40;44.40
22290;DHT22;11313;50.116;8.424;2023-01-20T07:46:00;24.30;44.40
22290;DHT22;11313;50.116;8.424;2023-01-20T07:48:27;24.30;44.40
22290;DHT22;11313;50.116;8.424;2023-01-20T07:50:54;24.30;44.30
22290;DHT22;11313;50.116;8.424;2023-01-20T07:53:26;24.30;44.30
22290;DHT22;11313;50.116;8.424;2023-01-20T07:55:52;24.30;44.30
22290;DHT22;11313;50.116;8.424;2023-01-20T07:58:17;24.30;44.30
22290;DHT22;11313;50.116;8.424;2023-01-20T08:00:43;24.30;44.30
22290;DHT22;11313;50.116;8.424;2023-01-20T08:03:12;24.30;44.30
22290;DHT22;11313;50.116;8.424;2023-01-20T08:05:38;24.30;44.30
22290;DHT22;11313;50.116;8.424;2023-01-20T08:08:03;24.30;44.20
22290;DHT22;11313;50.116;8.424;2023-01-20T08:10:29;24.30;44.20
22290;DHT22;11313;50.116;8.424;2023-01-20T08:12:55;24.30;44.20
22290;DHT22;11313;50.116;8.424;2023-01-20T08:15:20;24.30;44.20
22290;DHT22;11313;50.116;8.424;2023-01-20T08:17:45;24.40;44.30
22290;DHT22;11313;50.116;8.424;2023-01-20T08:20:11;24.40;44.30
22290;DHT22;11313;50.116;8.424;2023-01-20T08:22:37;24.40;44.20
22290;DHT22;11313;50.116;8.424;2023-01-20T08:25:02;24.40;44.20
22290;DHT22;11313;50.116;8.424;2023-01-20T08:27:28;24.40;44.20
22290;DHT22;11313;50.116;8.424;2023-01-20T08:29:54;24.40;44.20
22290;DHT22;11313;50.116;8.424;2023-01-20T08:32:19;24.40;44.20
22290;DHT22;11313;50.116;8.424;2023-01-20T08:34:45;24.40;44.20
22290;DHT22;11313;50.116;8.424;2023-01-20T08:37:10;24.40;44.10
22290;DHT22;11313;50.116;8.424;2023-01-20T08:39:36;24.40;44.10
22290;DHT22;11313;50.116;8.424;2023-01-20T08:42:01;24.40;44.10
22290;DHT22;11313;50.116;8.424;2023-01-20T08:44:27;24.40;44.20
22290;DHT22;11313;50.116;8.424;2023-01-20T08:46:54;24.40;44.10
22290;DHT22;11313;50.116;8.424;2023-01-20T08:49:23;24.40;44.00
22290;DHT22;11313;50.116;8.424;2023-01-20T08:51:49;24.40;44.10
22290;DHT22;11313;50.116;8.424;2023-01-20T08:54:14;24.40;44.10
22290;DHT22;11313;50.116;8.424;2023-01-20T08:56:40;24.40;44.00
22290;DHT22;11313;50.116;8.424;2023-01-20T08:59:05;24.40;44.00
22290;DHT22;11313;50.116;8.424;2023-01-20T09:01:33;24.40;44.00
22290;DHT22;11313;50.116;8.424;2023-01-20T09:04:00;24.40;44.00
22290;DHT22;11313;50.116;8.424;2023-01-20T09:06:26;24.40;44.00
22290;DHT22;11313;50.116;8.424;2023-01-20T09:08:51;24.40;44.00
22290;DHT22;11313;50.116;8.424;2023-01-20T09:11:21;24.40;44.10
22290;DHT22;11313;50.116;8.424;2023-01-20T09:13:47;24.40;44.00
22290;DHT22;11313;50.116;8.424;2023-01-20T09:16:14;24.40;44.10
22290;DHT22;11313;50.116;8.424;2023-01-20T09:18:40;24.40;44.00
22290;DHT22;11313;50.116;8.424;2023-01-20T09:21:06;24.40;44.00
22290;DHT22;11313;50.116;8.424;2023-01-20T09:23:33;24.40;44.00
22290;DHT22;11313;50.116;8.424;2023-01-20T09:26:00;24.40;44.00
22290;DHT22;11313;50.116;8.424;2023-01-20T09:28:26;24.40;44.00
22290;DHT22;11313;50.116;8.424;2023-01-20T09:30:59;24.40;44.00
22290;DHT22;11313;50.116;8.424;2023-01-20T09:33:25;24.40;44.00
22290;DHT22;11313;50.116;8.424;2023-01-20T09:35:55;24.40;44.00
22290;DHT22;11313;50.116;8.424;2023-01-20T09:38:21;24.40;44.00
22290;DHT22;11313;50.116;8.424;2023-01-20T09:41:25;24.40;44.10
22290;DHT22;11313;50.116;8.424;2023-01-20T09:44:35;24.40;44.10
22290;DHT22;11313;50.116;8.424;2023-01-20T09:52:44;24.40;44.10
22290;DHT22;11313;50.116;8.424;2023-01-20T09:55:49;24.40;44.10
22290;DHT22;11313;50.116;8.424;2023-01-20T09:58:47;24.40;44.10
22290;DHT22;11313;50.116;8.424;2023-01-20T10:01:29;24.40;44.10
22290;DHT22;11313;50.116;8.424;2023-01-20T10:04:18;24.40;44.10
22290;DHT22;11313;50.116;8.424;2023-01-20T10:06:54;24.40;44.10
22290;DHT22;11313;50.116;8.424;2023-01-20T10:09:32;24.40;44.10
22290;DHT22;11313;50.116;8.424;2023-01-20T10:12:17;24.40;44.10
22290;DHT22;11313;50.116;8.424;2023-01-20T10:14:48;24.40;44.10
22290;DHT22;11313;50.116;8.424;2023-01-20T10:17:29;24.40;44.10
22290;DHT22;11313;50.116;8.424;2023-01-20T10:20:11;24.40;44.10
22290;DHT22;11313;50.116;8.424;2023-01-20T10:22:49;24.40;44.00
22290;DHT22;11313;50.116;8.424;2023-01-20T10:25:27;24.40;44.00
22290;DHT22;11313;50.116;8.424;2023-01-20T10:27:58;24.40;44.10
22290;DHT22;11313;50.116;8.424;2023-01-20T10:30:30;24.40;44.00
22290;DHT22;11313;50.116;8.424;2023-01-20T10:35:39;24.40;44.00
22290;DHT22;11313;50.116;8.424;2023-01-20T10:38:08;24.40;44.00
22290;DHT22;11313;50.116;8.424;2023-01-20T10:40:45;24.40;44.00
22290;DHT22;11313;50.116;8.424;2023-01-20T10:43:14;24.40;44.00
22290;DHT22;11313;50.116;8.424;2023-01-20T10:48:45;24.50;44.00
22290;DHT22;11313;50.116;8.424;2023-01-20T10:51:42;24.40;43.90
22290;DHT22;11313;50.116;8.424;2023-01-20T10:54:36;24.50;44.00
22290;DHT22;11313;50.116;8.424;2023-01-20T10:57:08;24.50;44.00
22290;DHT22;11313;50.116;8.424;2023-01-20T10:59:41;24.50;44.00
22290;DHT22;11313;50.116;8.424;2023-01-20T11:02:18;24.50;44.00
22290;DHT22;11313;50.116;8.424;2023-01-20T11:04:48;24.50;43.90
22290;DHT22;11313;50.116;8.424;2023-01-20T11:07:17;24.50;43.90
22290;DHT22;11313;50.116;8.424;2023-01-20T11:09:45;24.50;43.90
22290;DHT22;11313;50.116;8.424;2023-01-20T11:12:14;24.50;43.90
22290;DHT22;11313;50.116;8.424;2023-01-20T11:14:41;24.50;43.90
22290;DHT22;11313;50.116;8.424;2023-01-20T11:17:13;24.50;43.90
22290;DHT22;11313;50.116;8.424;2023-01-20T11:24:53;24.50;43.90
22290;DHT22;11313;50.116;8.424;2023-01-20T11:27:21;24.50;43.90
22290;DHT22;11313;50.116;8.424;2023-01-20T11:29:58;24.50;43.90
22290;DHT22;11313;50.116;8.424;2023-01-20T11:32:30;24.50;43.80
22290;DHT22;11313;50.116;8.424;2023-01-20T11:34:57;24.50;43.90
22290;DHT22;11313;50.116;8.424;2023-01-20T11:37:25;24.50;43.90
22290;DHT22;11313;50.116;8.424;2023-01-20T11:42:21;24.50;43.90
22290;DHT22;11313;50.116;8.424;2023-01-20T11:44:51;24.50;43.90
22290;DHT22;11313;50.116;8.424;2023-01-20T11:52:42;24.40;43.90
22290;DHT22;11313;50.116;8.424;2023-01-20T11:55:21;24.40;43.90
22290;DHT22;11313;50.116;8.424;2023-01-20T11:58:00;24.40;43.90
22290;DHT22;11313;50.116;8.424;2023-01-20T12:00:35;24.40;43.90
22290;DHT22;11313;50.116;8.424;2023-01-20T12:06:12;24.40;43.90
22290;DHT22;11313;50.116;8.424;2023-01-20T12:11:18;24.40;43.90
22290;DHT22;11313;50.116;8.424;2023-01-20T12:14:09;24.40;43.90
22290;DHT22;11313;50.116;8.424;2023-01-20T12:19:58;24.40;43.90
22290;DHT22;11313;50.116;8.424;2023-01-20T12:22:33;24.40;43.90
22290;DHT22;11313;50.116;8.424;2023-01-20T12:25:08;24.40;43.90
22290;DHT22;11313;50.116;8.424;2023-01-20T12:27:48;24.40;43.90
22290;DHT22;11313;50.116;8.424;2023-01-20T12:32:57;24.40;43.80
22290;DHT22;11313;50.116;8.424;2023-01-20T12:35:26;24.40;43.80
22290;DHT22;11313;50.116;8.424;2023-01-20T12:38:06;24.40;43.80
22290;DHT22;11313;50.116;8.424;2023-01-20T12:40:48;24.40;43.80
22290;DHT22;11313;50.116;8.424;2023-01-20T12:43:32;24.40;43.80
22290;DHT22;11313;50.116;8.424;2023-01-20T12:46:12;24.40;43.80
22290;DHT22;11313;50.116;8.424;2023-01-20T13:11:14;24.40;43.60
22290;DHT22;11313;50.116;8.424;2023-01-20T13:19:11;24.40;43.50
22290;DHT22;11313;50.116;8.424;2023-01-20T13:21:37;24.40;43.60
22290;DHT22;11313;50.116;8.424;2023-01-20T13:24:06;24.50;43.60
22290;DHT22;11313;50.116;8.424;2023-01-20T13:26:35;24.40;43.50
22290;DHT22;11313;50.116;8.424;2023-01-20T13:29:00;24.50;43.60
22290;DHT22;11313;50.116;8.424;2023-01-20T13:42:27;24.40;43.50
22290;DHT22;11313;50.116;8.424;2023-01-20T13:50:41;24.40;43.50
22290;DHT22;11313;50.116;8.424;2023-01-20T13:53:14;24.40;43.40
22290;DHT22;11313;50.116;8.424;2023-01-20T13:55:48;24.40;43.50
22290;DHT22;11313;50.116;8.424;2023-01-20T13:58:27;24.40;43.40
22290;DHT22;11313;50.116;8.424;2023-01-20T14:00:58;24.40;43.40
22290;DHT22;11313;50.116;8.424;2023-01-20T14:03:27;24.50;43.60
22290;DHT22;11313;50.116;8.424;2023-01-20T14:06:03;24.40;43.50
22290;DHT22;11313;50.116;8.424;2023-01-20T14:08:38;24.40;43.50
22290;DHT22;11313;50.116;8.424;2023-01-20T14:11:31;24.40;43.50
22290;DHT22;11313;50.116;8.424;2023-01-20T14:14:02;24.40;43.50
22290;DHT22;11313;50.116;8.424;2023-01-20T14:21:51;24.40;43.50
22290;DHT22;11313;50.116;8.424;2023-01-20T14:24:35;24.40;43.50
22290;DHT22;11313;50.116;8.424;2023-01-20T14:27:22;24.40;43.50
22290;DHT22;11313;50.116;8.424;2023-01-20T14:29:51;24.40;43.50
22290;DHT22;11313;50.116;8.424;2023-01-20T14:32:23;24.30;43.50
22290;DHT22;11313;50.116;8.424;2023-01-20T14:34:53;24.30;43.50
22290;DHT22;11313;50.116;8.424;2023-01-20T14:37:28;24.40;43.60
22290;DHT22;11313;50.116;8.424;2023-01-20T14:39:56;24.40;43.60
22290;DHT22;11313;50.116;8.424;2023-01-20T14:42:24;24.40;43.60
22290;DHT22;11313;50.116;8.424;2023-01-20T14:44:51;24.30;43.50
22290;DHT22;11313;50.116;8.424;2023-01-20T14:47:18;24.40;43.60
22290;DHT22;11313;50.116;8.424;2023-01-20T14:49:46;24.30;43.60
22290;DHT22;11313;50.116;8.424;2023-01-20T14:52:26;24.30;43.60
22290;DHT22;11313;50.116;8.424;2023-01-20T14:54:53;24.30;44.20
22290;DHT22;11313;50.116;8.424;2023-01-20T14:57:31;24.30;43.60
22290;DHT22;11313;50.116;8.424;2023-01-20T15:00:11;24.30;43.60
22290;DHT22;11313;50.116;8.424;2023-01-20T15:02:38;24.30;43.60
22290;DHT22;11313;50.116;8.424;2023-01-20T15:05:38;24.30;43.70
22290;DHT22;11313;50.116;8.424;2023-01-20T15:08:26;24.30;43.60
22290;DHT22;11313;50.116;8.424;2023-01-20T15:16:39;24.20;43.60
22290;DHT22;11313;50.116;8.424;2023-01-20T15:21:54;24.20;43.60
22290;DHT22;11313;50.116;8.424;2023-01-20T15:24:30;24.20;43.60
22290;DHT22;11313;50.116;8.424;2023-01-20T15:26:57;24.20;43.60
22290;DHT22;11313;50.116;8.424;2023-01-20T15:29:25;24.20;43.70
22290;DHT22;11313;50.116;8.424;2023-01-20T15:31:52;24.20;43.70
22290;DHT22;11313;50.116;8.424;2023-01-20T15:34:19;24.20;43.70
22290;DHT22;11313;50.116;8.424;2023-01-20T15:36:46;24.20;43.70
22290;DHT22;11313;50.116;8.424;2023-01-20T15:39:19;24.30;43.70
22290;DHT22;11313;50.116;8.424;2023-01-20T15:41:45;24.20;43.70
22290;DHT22;11313;50.116;8.424;2023-01-20T15:44:15;24.20;43.70
22290;DHT22;11313;50.116;8.424;2023-01-20T15:46:41;24.20;43.70
22290;DHT22;11313;50.116;8.424;2023-01-20T15:49:10;24.20;43.60
22290;DHT22;11313;50.116;8.424;2023-01-20T15:51:37;24.20;43.60
22290;DHT22;11313;50.116;8.424;2023-01-20T15:54:02;24.20;43.70
22290;DHT22;11313;50.116;8.424;2023-01-20T15:56:29;24.20;43.70
22290;DHT22;11313;50.116;8.424;2023-01-20T15:58:56;24.20;43.60
22290;DHT22;11313;50.116;8.424;2023-01-20T16:01:23;24.20;43.60
22290;DHT22;11313;50.116;8.424;2023-01-20T16:03:53;24.20;43.60
22290;DHT22;11313;50.116;8.424;2023-01-20T16:06:20;24.20;43.60
22290;DHT22;11313;50.116;8.424;2023-01-20T16:08:48;24.20;43.60
22290;DHT22;11313;50.116;8.424;2023-01-20T16:11:16;24.20;43.60
22290;DHT22;11313;50.116;8.424;2023-01-20T16:13:42;24.20;43.60
22290;DHT22;11313;50.116;8.424;2023-01-20T16:16:15;24.20;43.60
22290;DHT22;11313;50.116;8.424;2023-01-20T16:18:41;24.20;43.60
22290;DHT22;11313;50.116;8.424;2023-01-20T16:21:10;24.20;43.60
22290;DHT22;11313;50.116;8.424;2023-01-20T16:23:35;24.20;43.60
22290;DHT22;11313;50.116;8.424;2023-01-20T16:26:01;24.30;43.60
22290;DHT22;11313;50.116;8.424;2023-01-20T16:28:26;24.30;43.70
22290;DHT22;11313;50.116;8.424;2023-01-20T16:30:53;24.20;43.60
22290;DHT22;11313;50.116;8.424;2023-01-20T16:33:23;24.20;43.60
22290;DHT22;11313;50.116;8.424;2023-01-20T16:35:50;24.20;43.60
22290;DHT22;11313;50.116;8.424;2023-01-20T16:38:19;24.20;43.60
22290;DHT22;11313;50.116;8.424;2023-01-20T16:41:02;24.20;43.60
22290;DHT22;11313;50.116;8.424;2023-01-20T16:43:28;24.20;43.60
22290;DHT22;11313;50.116;8.424;2023-01-20T16:45:54;24.30;43.70
22290;DHT22;11313;50.116;8.424;2023-01-20T16:48:21;24.20;43.60
22290;DHT22;11313;50.116;8.424;2023-01-20T16:50:47;24.20;43.60
22290;DHT22;11313;50.116;8.424;2023-01-20T16:53:13;24.20;43.60
22290;DHT22;11313;50.116;8.424;2023-01-20T16:55:45;24.30;43.60
22290;DHT22;11313;50.116;8.424;2023-01-20T16:58:12;24.20;43.60
22290;DHT22;11313;50.116;8.424;2023-01-20T17:00:38;24.20;43.60
22290;DHT22;11313;50.116;8.424;2023-01-20T17:03:04;24.20;43.60
22290;DHT22;11313;50.116;8.424;2023-01-20T17:05:30;24.20;43.60
22290;DHT22;11313;50.116;8.424;2023-01-20T17:07:56;24.20;43.60
22290;DHT22;11313;50.116;8.424;2023-01-20T17:10:23;24.20;43.50
22290;DHT22;11313;50.116;8.424;2023-01-20T17:12:51;24.20;43.50
22290;DHT22;11313;50.116;8.424;2023-01-20T17:15:17;24.20;43.60
22290;DHT22;11313;50.116;8.424;2023-01-20T17:17:50;24.20;43.60
22290;DHT22;11313;50.116;8.424;2023-01-20T17:20:19;24.20;43.60
22290;DHT22;11313;50.116;8.424;2023-01-20T17:22:45;24.20;43.70
22290;DHT22;11313;50.116;8.424;2023-01-20T17:25:11;24.20;43.70
22290;DHT22;11313;50.116;8.424;2023-01-20T17:27:37;24.20;44.00
22290;DHT22;11313;50.116;8.424;2023-01-20T17:30:04;24.20;43.70
22290;DHT22;11313;50.116;8.424;2023-01-20T17:32:33;24.20;43.70